< < Back
Terminal Aerodrome Forecast


Current Version              Previous Versions:   1  2  3  4  5  6  7  8  9  

Terminal Aerodrome Forecast

703
FTUS44 KBMX 281720
TAFANB
TAF
KANB 281720Z 2818/2918 33007KT P6SM BKN070
     FM290200 00000KT P6SM FEW050=

Latest METAR

017
SAUS70 KWBC 290000 RRE
MTRANB
METAR KANB 282353Z AUTO 36005KT 10SM BKN110 09/M09 A3023 RMK AO2 SLP242
T00891089 10117 20083 51016


USA.gov is the U.S. government's official web portal to all federal, state and local government web resources and services.